Time;durP1;ratioP1;P1;durP2;ratioP2;P2;SDS_P1;SDS_P2;PMS_P1;PMS_P2;Temp;Humidity;BMP_temperature;BMP_pressure;BME280_temperature;BME280_humidity;BME280_pressure;Samples;Min_cycle;Max_cycle;Signal;HPM_P1;HPM_P2
2023/10/10 00:00:23;;;;;;;13.23;7.97;;;;;;;9.10;100.00;100701.66;5590484;31;34042;-68
2023/10/10 00:03:27;;;;;;;11.52;7.20;;;;;;;9.20;100.00;100685.72;5590453;31;33843;-68
2023/10/10 00:06:30;;;;;;;14.70;7.85;;;;;;;9.22;100.00;100683.72;5576750;31;33928;-67
2023/10/10 00:09:33;;;;;;;14.52;7.95;;;;;;;9.20;100.00;100691.81;5590380;31;33874;-67
2023/10/10 00:12:36;;;;;;;13.50;8.02;;;;;;;9.24;100.00;100687.91;5590170;31;34008;-68
2023/10/10 00:15:49;;;;;;;15.57;7.70;;;;;;;9.26;100.00;100698.31;5590190;31;33828;-68
2023/10/10 00:18:56;;;;;;;13.80;7.72;;;;;;;9.26;100.00;100704.44;5590320;31;33925;-68
2023/10/10 00:22:02;;;;;;;15.77;8.30;;;;;;;9.30;100.00;100710.28;5590479;31;34594;-67
2023/10/10 00:25:12;;;;;;;13.88;7.78;;;;;;;9.24;100.00;100711.72;5590282;31;34314;-68
2023/10/10 00:28:20;;;;;;;17.08;7.53;;;;;;;9.27;100.00;100713.22;5589598;31;34869;-69
2023/10/10 00:31:26;;;;;;;13.48;7.47;;;;;;;9.25;100.00;100725.78;5590276;31;34083;-68
2023/10/10 00:34:30;;;;;;;13.68;7.75;;;;;;;9.24;100.00;100734.72;5590167;31;33954;-68
2023/10/10 00:37:34;;;;;;;17.17;7.60;;;;;;;9.27;100.00;100737.88;5590124;31;34417;-68
2023/10/10 00:40:39;;;;;;;14.15;7.70;;;;;;;9.04;100.00;100745.44;5590029;31;34779;-68
2023/10/10 00:43:42;;;;;;;16.77;8.27;;;;;;;9.04;100.00;100734.03;5589953;31;34898;-68
2023/10/10 00:46:51;;;;;;;15.68;7.53;;;;;;;9.11;100.00;100743.00;5589914;31;33795;-68
2023/10/10 00:49:55;;;;;;;13.23;7.50;;;;;;;9.09;100.00;100737.06;5590020;31;34596;-68
2023/10/10 00:53:00;;;;;;;16.95;7.25;;;;;;;9.07;100.00;100749.59;5589967;31;33773;-68
2023/10/10 00:56:06;;;;;;;17.48;7.47;;;;;;;9.01;100.00;100744.88;5590080;31;33797;-68
2023/10/10 00:59:09;;;;;;;13.77;7.45;;;;;;;8.92;100.00;100733.38;5576301;31;34521;-68
2023/10/10 01:02:16;;;;;;;18.08;7.82;;;;;;;8.87;100.00;100748.03;5589884;31;34592;-68
2023/10/10 01:05:23;;;;;;;13.25;7.57;;;;;;;8.79;100.00;100754.06;5589850;31;33914;-68
2023/10/10 01:08:27;;;;;;;14.00;6.82;;;;;;;8.76;100.00;100746.44;5589913;31;33877;-68
2023/10/10 01:11:30;;;;;;;17.02;6.93;;;;;;;8.72;100.00;100739.75;5590203;31;34059;-68
2023/10/10 01:14:33;;;;;;;13.93;7.68;;;;;;;8.63;100.00;100748.56;5589726;31;34134;-69
2023/10/10 01:17:38;;;;;;;15.32;8.30;;;;;;;8.55;100.00;100764.34;5589915;31;33879;-69
2023/10/10 01:20:45;;;;;;;15.10;8.20;;;;;;;8.52;100.00;100760.16;5589757;31;33996;-69
2023/10/10 01:23:48;;;;;;;20.02;8.85;;;;;;;8.46;100.00;100759.94;5589756;31;33869;-68
2023/10/10 01:26:52;;;;;;;14.48;9.05;;;;;;;8.88;100.00;100769.06;5589640;31;34796;-69
2023/10/10 01:30:17;;;;;;;16.62;9.13;;;;;;;8.89;100.00;100765.44;5575946;31;34613;-68
2023/10/10 01:36:43;;;;;;;17.70;9.63;;;;;;;8.81;100.00;100760.03;5589642;31;34540;-68
2023/10/10 01:40:16;;;;;;;15.90;10.18;;;;;;;8.83;100.00;100767.84;5588712;31;33423;-69
2023/10/10 01:43:21;;;;;;;16.33;9.85;;;;;;;8.77;100.00;100757.81;5589703;31;34163;-68
2023/10/10 01:46:29;;;;;;;16.85;9.63;;;;;;;8.77;100.00;100749.91;5589409;31;34890;-68
2023/10/10 01:49:34;;;;;;;19.67;9.85;;;;;;;8.77;100.00;100744.59;5589431;31;34633;-68
2023/10/10 01:52:45;;;;;;;14.77;8.02;;;;;;;9.01;100.00;100744.88;5589534;31;34490;-68
2023/10/10 01:55:50;;;;;;;15.80;8.05;;;;;;;8.82;100.00;100732.59;5575805;31;34753;-68
2023/10/10 01:58:54;;;;;;;16.23;8.07;;;;;;;8.70;100.00;100696.78;5589515;31;33786;-68
2023/10/10 02:01:57;;;;;;;13.70;7.70;;;;;;;8.75;100.00;100694.50;5589344;31;34073;-68
2023/10/10 02:05:03;;;;;;;14.35;7.72;;;;;;;8.64;100.00;100708.75;5589337;31;33956;-68
2023/10/10 02:08:17;;;;;;;17.48;7.68;;;;;;;8.68;100.00;100733.94;5589418;31;34417;-68
2023/10/10 02:11:23;;;;;;;16.27;7.50;;;;;;;8.65;100.00;100743.97;5589323;31;33895;-68
2023/10/10 02:14:30;;;;;;;15.45;8.07;;;;;;;8.66;100.00;100757.06;5589328;31;33888;-68
2023/10/10 02:17:39;;;;;;;16.73;7.97;;;;;;;8.63;100.00;100748.56;5589225;31;34114;-68
2023/10/10 02:23:46;;;;;;;12.57;7.78;;;;;;;8.62;100.00;100768.91;5589177;31;33762;-67
2023/10/10 02:26:51;;;;;;;15.65;7.55;;;;;;;8.54;100.00;100760.88;5589125;31;33996;-68
2023/10/10 02:29:54;;;;;;;13.05;7.00;;;;;;;8.51;100.00;100753.25;5589407;31;34055;-68
2023/10/10 02:32:57;;;;;;;14.00;7.55;;;;;;;8.57;100.00;100749.97;5589028;31;34495;-68
2023/10/10 02:36:01;;;;;;;11.95;7.20;;;;;;;8.60;100.00;100754.16;5588962;31;33811;-68
2023/10/10 02:42:19;;;;;;;13.68;6.90;;;;;;;8.61;100.00;100755.84;5588904;31;34846;-68
2023/10/10 02:45:28;;;;;;;13.27;6.43;;;;;;;8.59;100.00;100763.91;5575090;31;34493;-68
2023/10/10 02:48:37;;;;;;;17.35;6.25;;;;;;;8.58;100.00;100782.56;5588649;31;34283;-68
2023/10/10 02:51:48;;;;;;;12.00;5.72;;;;;;;8.51;100.00;100773.56;5588308;31;34602;-68
2023/10/10 02:54:54;;;;;;;14.48;6.28;;;;;;;8.45;100.00;100772.31;5589052;31;33931;-68
2023/10/10 02:57:59;;;;;;;15.82;6.07;;;;;;;8.49;100.00;100773.69;5588599;31;33916;-68
2023/10/10 03:01:04;;;;;;;14.07;6.05;;;;;;;8.58;100.00;100791.31;5588623;31;34456;-66
2023/10/10 03:04:08;;;;;;;16.05;6.18;;;;;;;8.51;100.00;100794.69;5588776;31;34765;-68
2023/10/10 03:07:19;;;;;;;15.95;6.03;;;;;;;8.49;100.00;100788.72;5588880;31;32674;-68
2023/10/10 03:10:45;;;;;;;14.87;5.47;;;;;;;8.58;100.00;100798.41;5588957;31;33785;-68
2023/10/10 03:13:54;;;;;;;12.30;5.45;;;;;;;8.49;100.00;100792.19;5588707;31;34621;-68
2023/10/10 03:17:03;;;;;;;13.68;5.72;;;;;;;8.42;100.00;100780.53;5588433;31;33794;-68
2023/10/10 03:20:14;;;;;;;13.32;5.55;;;;;;;8.51;100.00;100786.78;5588486;31;34178;-68
2023/10/10 03:26:51;;;;;;;10.82;4.90;;;;;;;8.63;100.00;100793.53;5588456;31;33826;-68
2023/10/10 03:30:15;;;;;;;10.02;4.62;;;;;;;8.36;100.00;100793.50;5587978;31;33910;-68
2023/10/10 03:33:36;;;;;;;9.57;4.53;;;;;;;8.28;100.00;100791.50;5588086;31;32709;-68
2023/10/10 03:36:44;;;;;;;9.32;4.97;;;;;;;8.49;100.00;100796.66;5574119;31;33838;-68
2023/10/10 03:39:54;;;;;;;13.50;5.05;;;;;;;8.54;100.00;100797.06;5587969;31;33898;-68
2023/10/10 05:24:08;;;;;;;11.00;4.75;;;;;;;9.22;100.00;100847.84;5589484;31;34136;-68
2023/10/10 05:27:11;;;;;;;11.35;4.40;;;;;;;9.23;100.00;100858.31;5589301;31;34039;-68
2023/10/10 05:30:23;;;;;;;8.55;4.25;;;;;;;9.33;100.00;100866.19;5575880;31;33568;-67
2023/10/10 05:33:26;;;;;;;9.05;4.25;;;;;;;9.41;100.00;100855.69;5589458;31;34763;-68
2023/10/10 05:36:30;;;;;;;13.00;4.90;;;;;;;9.37;100.00;100864.91;5588874;31;34451;-68
2023/10/10 05:39:37;;;;;;;14.13;5.28;;;;;;;9.28;100.00;100871.09;5588931;31;34925;-68
2023/10/10 05:42:40;;;;;;;13.13;4.90;;;;;;;9.26;100.00;100876.53;5589251;31;34605;-68
2023/10/10 05:45:45;;;;;;;10.80;5.05;;;;;;;9.46;100.00;100879.91;5589303;31;33974;-68
2023/10/10 05:48:48;;;;;;;14.50;5.55;;;;;;;9.52;100.00;100892.56;5589064;31;33905;-68
2023/10/10 05:51:51;;;;;;;14.85;4.90;;;;;;;9.55;100.00;100890.44;5589042;31;34480;-67
2023/10/10 05:54:55;;;;;;;14.23;4.75;;;;;;;9.58;100.00;100886.69;5589117;31;33796;-68
2023/10/10 05:57:58;;;;;;;14.45;4.85;;;;;;;9.56;100.00;100886.81;5588319;31;34508;-68
2023/10/10 06:01:01;;;;;;;15.98;5.18;;;;;;;9.72;100.00;100888.81;5588743;31;34690;-68
2023/10/10 06:04:05;;;;;;;17.00;5.50;;;;;;;9.87;100.00;100895.28;5588091;31;34307;-69
2023/10/10 06:07:08;;;;;;;11.40;6.12;;;;;;;9.80;100.00;100896.00;5589036;31;33798;-67
2023/10/10 06:10:16;;;;;;;12.88;5.62;;;;;;;10.03;100.00;100892.75;5588471;31;34073;-67
2023/10/10 06:13:19;;;;;;;18.23;5.97;;;;;;;10.13;100.00;100905.94;5588356;31;34025;-68
2023/10/10 06:16:23;;;;;;;12.70;5.90;;;;;;;10.21;100.00;100910.53;5588962;31;33099;-68
2023/10/10 06:19:26;;;;;;;12.07;5.43;;;;;;;10.13;100.00;100907.75;5588576;31;34708;-68
2023/10/10 06:22:30;;;;;;;13.85;5.53;;;;;;;10.35;100.00;100915.28;5588623;31;34054;-68
2023/10/10 06:25:33;;;;;;;18.98;7.30;;;;;;;10.28;100.00;100922.16;5588371;31;33917;-68
2023/10/10 06:28:37;;;;;;;17.77;6.62;;;;;;;10.44;100.00;100933.78;5587537;31;33867;-68
2023/10/10 06:31:43;;;;;;;16.48;6.25;;;;;;;10.14;100.00;100938.59;5588164;31;34774;-67
2023/10/10 06:35:04;;;;;;;20.42;6.12;;;;;;;10.12;100.00;100937.94;5588465;31;33607;-67
2023/10/10 06:38:12;;;;;;;15.82;5.85;;;;;;;10.02;100.00;100944.09;5588404;31;33962;-66
2023/10/10 06:41:18;;;;;;;13.75;6.22;;;;;;;10.02;100.00;100949.41;5588502;31;33946;-66
2023/10/10 06:44:32;;;;;;;18.87;6.60;;;;;;;10.06;100.00;100951.78;5588370;31;35289;-68
2023/10/10 06:47:39;;;;;;;15.98;6.40;;;;;;;10.28;100.00;100949.53;5588285;31;34026;-69
2023/10/10 06:50:42;;;;;;;13.32;5.87;;;;;;;10.25;100.00;100941.06;5588782;31;34770;-67
2023/10/10 06:53:45;;;;;;;12.63;6.00;;;;;;;10.48;100.00;100942.25;5587871;31;33901;-67
2023/10/10 06:56:54;;;;;;;14.73;6.60;;;;;;;10.54;100.00;100944.28;5574337;31;33810;-67
2023/10/10 06:59:57;;;;;;;13.65;6.90;;;;;;;10.50;100.00;100940.28;5588687;31;34655;-67
2023/10/10 07:02:59;;;;;;;17.70;7.20;;;;;;;10.28;100.00;100944.22;5588422;31;34634;-67
2023/10/10 07:06:03;;;;;;;15.15;6.97;;;;;;;10.46;100.00;100947.69;5574481;31;32517;-67
2023/10/10 07:09:17;;;;;;;19.87;7.10;;;;;;;10.52;100.00;100951.56;5588165;31;34529;-67
2023/10/10 07:12:20;;;;;;;18.27;7.68;;;;;;;10.60;100.00;100956.91;5588252;31;33905;-67
2023/10/10 07:15:33;;;;;;;19.52;7.25;;;;;;;10.88;100.00;100950.53;5587967;31;33881;-68
2023/10/10 07:18:40;;;;;;;18.30;7.82;;;;;;;10.94;100.00;100953.53;5588039;31;33871;-68
2023/10/10 07:21:46;;;;;;;22.17;8.20;;;;;;;10.84;100.00;100961.59;5588075;31;33992;-67
2023/10/10 07:24:55;;;;;;;15.27;7.62;;;;;;;10.72;100.00;100955.69;5587759;31;34032;-67
2023/10/10 07:28:01;;;;;;;17.33;7.43;;;;;;;10.73;100.00;100962.69;5587937;31;34237;-67
2023/10/10 07:31:07;;;;;;;24.05;8.00;;;;;;;10.78;100.00;100963.06;5574044;31;33887;-67
2023/10/10 07:34:15;;;;;;;13.80;7.90;;;;;;;10.75;100.00;100960.69;5574250;31;35389;-68
2023/10/10 07:37:19;;;;;;;17.35;7.87;;;;;;;10.80;100.00;100971.66;5587906;31;33982;-67
2023/10/10 07:40:30;;;;;;;17.05;8.55;;;;;;;10.88;100.00;100962.97;5590523;31;33804;-68
2023/10/10 07:43:34;;;;;;;16.40;8.07;;;;;;;10.63;100.00;100959.28;5576583;31;34682;-67
2023/10/10 07:46:37;;;;;;;16.52;8.30;;;;;;;10.98;100.00;100961.03;5590479;31;34614;-68
2023/10/10 07:49:40;;;;;;;16.77;8.80;;;;;;;10.82;100.00;100939.69;5590266;31;33960;-68
2023/10/10 07:52:43;;;;;;;22.08;8.10;;;;;;;11.08;100.00;100963.59;5589951;31;33798;-67
2023/10/10 07:59:05;;;;;;;15.60;8.23;;;;;;;10.72;100.00;100960.16;5590355;31;34479;-68
2023/10/10 08:02:31;;;;;;;14.52;7.85;;;;;;;10.80;100.00;100960.22;5576809;31;33826;-68
2023/10/10 08:05:35;;;;;;;17.95;8.65;;;;;;;11.12;100.00;100963.09;5578980;31;33839;-67
2023/10/10 08:08:40;;;;;;;18.80;9.25;;;;;;;11.46;100.00;100964.94;5590272;31;34192;-67
2023/10/10 08:11:45;;;;;;;17.30;8.35;;;;;;;11.48;100.00;100968.25;5590317;31;33957;-67
2023/10/10 08:14:48;;;;;;;21.50;9.00;;;;;;;11.22;100.00;100958.53;5589997;31;34071;-66
2023/10/10 08:17:55;;;;;;;22.05;8.90;;;;;;;11.24;100.00;100961.00;5590392;31;33958;-67
2023/10/10 08:24:03;;;;;;;21.00;10.07;;;;;;;11.95;100.00;100973.97;5589709;31;33911;-66
2023/10/10 08:27:10;;;;;;;24.83;10.55;;;;;;;11.88;100.00;100976.44;5589524;31;34439;-66
2023/10/10 08:30:13;;;;;;;18.62;9.77;;;;;;;11.96;100.00;100984.41;5589093;31;33877;-66
2023/10/10 08:33:16;;;;;;;18.80;9.13;;;;;;;11.92;100.00;100979.59;5590328;31;33818;-66
2023/10/10 08:36:26;;;;;;;18.50;9.13;;;;;;;11.98;100.00;100978.94;5589954;31;33888;-66
2023/10/10 08:39:35;;;;;;;17.87;9.43;;;;;;;12.34;100.00;100990.16;5589921;31;34166;-66
2023/10/10 08:42:40;;;;;;;18.23;9.50;;;;;;;12.26;100.00;100990.97;5576172;31;33809;-66
2023/10/10 08:45:43;;;;;;;26.17;9.30;;;;;;;12.25;100.00;100996.47;5589651;31;33769;-66
2023/10/10 08:48:49;;;;;;;19.77;9.80;;;;;;;12.43;100.00;100999.81;5589520;31;34594;-66
2023/10/10 08:51:53;;;;;;;24.20;9.73;;;;;;;12.38;100.00;101010.13;5589496;31;33899;-66
2023/10/10 08:54:58;;;;;;;20.10;9.27;;;;;;;12.08;100.00;101008.91;5589674;31;33914;-66
2023/10/10 08:58:02;;;;;;;24.33;9.65;;;;;;;12.16;100.00;100995.59;5589549;31;34256;-66
2023/10/10 09:01:05;;;;;;;17.48;9.40;;;;;;;12.20;100.00;100996.94;5589961;31;34492;-67
2023/10/10 09:04:17;;;;;;;16.83;10.13;;;;;;;12.23;100.00;101003.78;5589428;31;33904;-67
2023/10/10 09:07:27;;;;;;;27.50;9.63;;;;;;;12.24;100.00;101000.13;5589367;31;34408;-66
2023/10/10 09:10:30;;;;;;;19.60;9.65;;;;;;;12.28;100.00;101010.28;5590338;31;34820;-65
2023/10/10 09:13:52;;;;;;;20.05;9.45;;;;;;;12.29;100.00;101014.62;5589518;31;34450;-67
2023/10/10 09:16:55;;;;;;;19.40;9.32;;;;;;;12.41;100.00;101026.59;5589077;31;34658;-66
2023/10/10 09:19:58;;;;;;;19.92;9.18;;;;;;;12.50;100.00;101022.09;5576038;31;34276;-67
2023/10/10 09:23:21;;;;;;;20.40;9.48;;;;;;;12.51;100.00;101029.09;5589464;31;33905;-67
2023/10/10 09:29:42;;;;;;;41.15;9.50;;;;;;;12.29;100.00;101032.41;5589266;31;35270;-66
2023/10/10 09:32:48;;;;;;;18.60;8.82;;;;;;;12.36;100.00;101034.22;5576859;31;34572;-67
2023/10/10 09:35:58;;;;;;;21.80;9.23;;;;;;;12.11;100.00;101028.00;5589815;31;33819;-66
2023/10/10 09:39:25;;;;;;;19.02;9.60;;;;;;;12.21;100.00;101035.84;5588968;31;33959;-66
2023/10/10 09:42:44;;;;;;;22.87;9.43;;;;;;;12.49;100.00;101039.91;5575605;31;32744;-68
2023/10/10 09:45:55;;;;;;;22.07;9.20;;;;;;;12.54;100.00;101039.41;5589283;31;33863;-67
2023/10/10 09:58:41;;;;;;;18.73;8.88;;;;;;;12.94;100.00;101036.78;5591504;31;34027;-66
2023/10/10 10:01:46;;;;;;;17.33;9.00;;;;;;;13.10;100.00;101038.59;5588303;31;32903;-66
2023/10/10 10:04:53;;;;;;;18.27;8.63;;;;;;;13.08;100.00;101041.44;5575566;31;34255;-68
2023/10/10 10:08:22;;;;;;;21.08;9.25;;;;;;;12.93;100.00;101039.59;5589093;31;33790;-68
2023/10/10 10:11:35;;;;;;;17.23;8.35;;;;;;;13.04;100.00;101036.59;5590017;31;34505;-67
2023/10/10 10:14:59;;;;;;;15.75;8.50;;;;;;;13.37;100.00;101024.94;5588755;31;34049;-67
2023/10/10 10:18:26;;;;;;;20.05;8.80;;;;;;;13.62;100.00;101022.19;5588820;31;33910;-67
2023/10/10 10:21:31;;;;;;;15.82;8.60;;;;;;;13.76;100.00;101024.13;5578157;31;33912;-67
2023/10/10 10:24:52;;;;;;;15.38;8.20;;;;;;;13.77;100.00;101029.31;5574920;31;33898;-67
2023/10/10 10:28:00;;;;;;;19.00;8.55;;;;;;;14.01;100.00;101030.19;5588550;31;34047;-67
2023/10/10 10:31:16;;;;;;;16.27;8.02;;;;;;;14.29;100.00;101032.22;5588795;31;33918;-67
2023/10/10 10:34:31;;;;;;;14.70;7.68;;;;;;;14.10;100.00;101035.31;5588772;31;33914;-67
2023/10/10 10:37:36;;;;;;;18.17;8.15;;;;;;;13.93;100.00;101031.09;5588677;31;33740;-67
2023/10/10 10:43:50;;;;;;;13.50;8.00;;;;;;;13.24;100.00;101018.47;5575043;31;33870;-67
2023/10/10 10:46:56;;;;;;;19.45;9.25;;;;;;;13.23;100.00;101014.97;5588673;31;34103;-68
2023/10/10 10:50:18;;;;;;;17.20;8.05;;;;;;;13.37;100.00;101021.44;5588884;31;34458;-67
2023/10/10 10:53:30;;;;;;;22.48;8.52;;;;;;;13.44;100.00;101017.09;5588545;31;34396;-66
2023/10/10 10:59:54;;;;;;;22.05;8.68;;;;;;;13.63;100.00;101021.19;5588412;31;34629;-67
2023/10/10 11:02:59;;;;;;;21.17;9.95;;;;;;;13.87;100.00;101013.09;5588048;31;34498;-67
2023/10/10 11:06:06;;;;;;;16.90;8.73;;;;;;;14.04;100.00;101014.66;5587980;31;34684;-67
2023/10/10 11:09:23;;;;;;;19.30;9.40;;;;;;;14.22;100.00;101017.09;5588517;31;34001;-67
2023/10/10 11:12:31;;;;;;;17.40;9.35;;;;;;;14.11;100.00;101023.66;5574984;31;34472;-67
2023/10/10 11:15:38;;;;;;;22.92;9.60;;;;;;;13.84;100.00;101013.47;5590533;31;34488;-67
2023/10/10 11:18:42;;;;;;;20.15;9.38;;;;;;;13.82;100.00;101007.44;5590020;31;34359;-67
2023/10/10 11:21:53;;;;;;;20.70;9.25;;;;;;;14.09;100.00;101014.16;5577064;31;33730;-67
2023/10/10 11:25:01;;;;;;;17.90;9.95;;;;;;;13.91;100.00;101015.25;5590373;31;34522;-66
2023/10/10 11:28:04;;;;;;;15.93;9.50;;;;;;;13.63;100.00;101002.53;5590240;31;33832;-67
2023/10/10 11:31:07;;;;;;;21.35;9.80;;;;;;;13.43;100.00;101004.75;5576372;31;34017;-66
2023/10/10 11:34:11;;;;;;;21.27;10.13;;;;;;;13.49;100.00;101002.25;5590451;31;32999;-67
2023/10/10 11:37:23;;;;;;;19.20;10.13;;;;;;;13.37;100.00;100998.28;5590331;31;33757;-66
2023/10/10 11:43:31;;;;;;;21.27;10.07;;;;;;;14.35;100.00;100988.81;5590354;31;35338;-67
2023/10/10 11:46:38;;;;;;;18.48;10.23;;;;;;;14.50;100.00;100988.91;5576741;31;34057;-66
2023/10/10 11:49:41;;;;;;;18.15;9.45;;;;;;;14.64;100.00;100985.44;5589970;31;34071;-66
2023/10/10 11:52:58;;;;;;;21.75;10.07;;;;;;;14.50;100.00;100994.25;5589874;31;33928;-66
2023/10/10 11:56:02;;;;;;;20.95;9.93;;;;;;;15.15;100.00;100986.47;5590048;31;33875;-67
2023/10/10 11:59:13;;;;;;;18.52;9.98;;;;;;;15.26;100.00;100979.03;5589404;31;34650;-66
2023/10/10 12:02:17;;;;;;;20.48;10.93;;;;;;;15.39;100.00;100974.72;5589737;31;34176;-66
2023/10/10 12:08:36;;;;;;;22.23;11.12;;;;;;;14.95;100.00;100973.84;5590591;31;34348;-66
2023/10/10 12:11:39;;;;;;;29.90;11.50;;;;;;;14.70;100.00;100970.56;5590591;31;34480;-66
2023/10/10 12:14:42;;;;;;;18.60;11.07;;;;;;;14.86;100.00;100966.91;5590137;31;33802;-66
2023/10/10 12:17:47;;;;;;;28.90;11.93;;;;;;;15.14;100.00;100960.78;5589896;31;34031;-67
2023/10/10 12:20:50;;;;;;;22.45;11.80;;;;;;;15.36;100.00;100964.38;5590253;31;34102;-66
2023/10/10 12:23:55;;;;;;;22.98;10.93;;;;;;;15.31;100.00;100958.75;5589191;31;33795;-68
2023/10/10 12:27:07;;;;;;;27.70;11.23;;;;;;;15.88;100.00;100952.72;5576614;31;34064;-66
2023/10/10 12:30:13;;;;;;;22.17;11.43;;;;;;;15.96;100.00;100947.25;5589970;31;34523;-67
2023/10/10 12:33:16;;;;;;;23.42;12.05;;;;;;;15.98;100.00;100955.91;5589696;31;35300;-67
2023/10/10 12:36:28;;;;;;;27.37;11.60;;;;;;;15.92;100.00;100960.19;5590015;31;34375;-67
2023/10/10 12:39:32;;;;;;;21.67;11.55;;;;;;;15.86;100.00;100957.44;5576293;31;34607;-67
2023/10/10 12:42:35;;;;;;;29.73;12.00;;;;;;;15.67;100.00;100956.19;5589941;31;34653;-67
2023/10/10 12:45:38;;;;;;;25.85;12.18;;;;;;;15.92;100.00;100954.03;5589973;31;34569;-67
2023/10/10 12:48:41;;;;;;;26.50;12.15;;;;;;;15.93;100.00;100955.66;5589745;31;34567;-67
2023/10/10 12:51:45;;;;;;;26.98;12.50;;;;;;;15.82;100.00;100948.97;5576082;31;34128;-68
2023/10/10 12:54:57;;;;;;;25.52;13.13;;;;;;;15.97;100.00;100946.25;5589758;31;33820;-68
2023/10/10 12:58:15;;;;;;;27.85;12.95;;;;;;;15.82;100.00;100956.16;5589417;31;33850;-67
2023/10/10 13:01:25;;;;;;;31.23;12.98;;;;;;;15.48;100.00;100951.38;5589767;31;34467;-68
2023/10/10 13:04:31;;;;;;;22.87;13.40;;;;;;;15.59;100.00;100946.41;5576698;31;34599;-67
2023/10/10 13:07:37;;;;;;;25.58;13.73;;;;;;;15.84;100.00;100951.44;5575670;31;34480;-68
2023/10/10 13:10:39;;;;;;;31.00;13.52;;;;;;;15.65;100.00;100953.69;5589644;31;34157;-68
2023/10/10 13:13:48;;;;;;;27.05;14.07;;;;;;;15.55;100.00;100946.97;5589578;31;34049;-68
2023/10/10 13:19:58;;;;;;;27.15;13.95;;;;;;;15.57;100.00;100945.78;5589371;31;34573;-67
2023/10/10 13:23:01;;;;;;;28.08;13.95;;;;;;;15.71;100.00;100944.09;5589128;31;34094;-67
2023/10/10 13:26:06;;;;;;;30.02;14.57;;;;;;;16.05;100.00;100940.78;5589316;31;33846;-66
2023/10/10 13:29:09;;;;;;;32.65;13.62;;;;;;;16.81;100.00;100944.59;5575551;31;35357;-68
2023/10/10 13:32:12;;;;;;;33.40;14.35;;;;;;;17.34;100.00;100935.03;5589282;31;33858;-67
2023/10/10 13:35:14;;;;;;;33.90;14.30;;;;;;;17.32;100.00;100926.38;5589068;31;34545;-67
2023/10/10 13:38:17;;;;;;;29.40;14.13;;;;;;;17.12;100.00;100928.13;5589307;31;34591;-67
2023/10/10 13:41:24;;;;;;;27.52;14.45;;;;;;;16.68;100.00;100931.09;5588927;31;33937;-66
2023/10/10 13:44:27;;;;;;;29.08;15.02;;;;;;;16.48;100.00;100926.38;5588954;31;33752;-67
2023/10/10 13:47:29;;;;;;;28.48;14.35;;;;;;;16.45;100.00;100917.91;5588847;31;33909;-67
2023/10/10 13:50:50;;;;;;;31.23;15.15;;;;;;;16.30;100.00;100922.50;5589026;31;34620;-67
2023/10/10 13:53:56;;;;;;;26.75;15.05;;;;;;;16.34;100.00;100921.09;5588724;31;34388;-67
2023/10/10 13:57:00;;;;;;;29.60;15.13;;;;;;;16.70;100.00;100919.16;5588948;31;33810;-67
2023/10/10 14:00:18;;;;;;;26.00;14.75;;;;;;;16.33;100.00;100924.78;5589506;31;33982;-67
2023/10/10 14:03:37;;;;;;;34.60;15.38;;;;;;;16.47;100.00;100926.56;5588752;31;33856;-67
2023/10/10 14:06:45;;;;;;;31.45;14.52;;;;;;;16.46;100.00;100923.03;5588417;31;34584;-67
2023/10/10 14:09:49;;;;;;;29.70;14.52;;;;;;;16.58;100.00;100920.72;5588522;31;33830;-67
2023/10/10 14:12:56;;;;;;;31.55;14.87;;;;;;;16.15;100.00;100916.38;5575307;31;34683;-67
2023/10/10 14:16:17;;;;;;;33.95;15.75;;;;;;;16.13;100.00;100916.56;5588357;31;34616;-67
2023/10/10 14:19:25;;;;;;;29.20;15.52;;;;;;;16.00;100.00;100919.09;5588693;31;34301;-67
2023/10/10 14:22:28;;;;;;;32.70;15.55;;;;;;;15.56;100.00;100912.03;5575050;31;34568;-67
2023/10/10 14:25:47;;;;;;;29.35;15.57;;;;;;;15.75;100.00;100920.47;5587866;31;33978;-67
2023/10/10 14:28:50;;;;;;;27.75;15.43;;;;;;;15.67;100.00;100921.41;5574311;31;33787;-67
2023/10/10 14:31:58;;;;;;;33.15;15.98;;;;;;;15.61;100.00;100930.19;5574603;31;34432;-67
2023/10/10 14:35:02;;;;;;;31.58;14.85;;;;;;;15.76;100.00;100919.44;5587857;31;34592;-68
2023/10/10 14:38:05;;;;;;;30.15;15.73;;;;;;;15.76;100.00;100933.66;5587944;31;33962;-67
2023/10/10 14:41:08;;;;;;;36.33;15.55;;;;;;;15.73;100.00;100931.38;5588024;31;34479;-68
2023/10/10 14:44:12;;;;;;;30.25;14.80;;;;;;;15.54;100.00;100924.72;5587951;31;33946;-68
2023/10/10 14:47:20;;;;;;;28.65;15.65;;;;;;;15.28;100.00;100923.53;5587076;31;34407;-68
2023/10/10 14:50:23;;;;;;;31.75;14.85;;;;;;;15.26;100.00;100925.56;5574617;31;35332;-68
2023/10/10 14:53:27;;;;;;;31.20;15.13;;;;;;;15.05;100.00;100921.81;5587799;31;34819;-67
2023/10/10 14:56:35;;;;;;;31.15;15.15;;;;;;;14.98;100.00;100922.69;5587645;31;32756;-66
2023/10/10 14:59:42;;;;;;;28.48;15.50;;;;;;;15.26;100.00;100918.37;5587957;31;34022;-67
2023/10/10 15:02:45;;;;;;;28.05;15.93;;;;;;;15.10;100.00;100926.59;5574362;31;34165;-67
2023/10/10 15:05:52;;;;;;;26.67;14.73;;;;;;;14.93;100.00;100919.75;5573737;31;33894;-67
2023/10/10 15:08:55;;;;;;;32.55;15.52;;;;;;;14.76;100.00;100925.25;5572993;31;34042;-66
2023/10/10 15:11:58;;;;;;;30.50;15.35;;;;;;;14.60;100.00;100928.06;5587574;31;33861;-68
2023/10/10 15:15:02;;;;;;;34.72;14.55;;;;;;;14.70;100.00;100930.50;5587628;31;34399;-68
2023/10/10 15:18:05;;;;;;;36.20;15.23;;;;;;;14.52;100.00;100933.50;5587221;31;34560;-68
2023/10/10 15:21:08;;;;;;;32.83;16.02;;;;;;;14.41;100.00;100938.41;5587138;31;34156;-68
2023/10/10 15:24:11;;;;;;;30.90;15.98;;;;;;;14.33;100.00;100944.59;5573542;31;34872;-67
2023/10/10 15:27:14;;;;;;;30.98;15.70;;;;;;;14.04;100.00;100942.63;5573144;31;34684;-67
2023/10/10 15:30:17;;;;;;;30.33;16.15;;;;;;;13.93;100.00;100954.56;5587142;31;34159;-68
2023/10/10 15:33:22;;;;;;;28.50;16.08;;;;;;;13.83;100.00;100955.78;5587085;31;34148;-66
2023/10/10 15:36:30;;;;;;;35.05;16.17;;;;;;;13.82;100.00;100962.13;5587245;31;33828;-67
2023/10/10 15:39:38;;;;;;;32.38;15.80;;;;;;;13.67;100.00;100954.03;5587252;31;33978;-67
2023/10/10 15:42:41;;;;;;;34.53;15.82;;;;;;;13.58;100.00;100949.72;5586844;31;34168;-68
2023/10/10 15:45:44;;;;;;;27.90;16.08;;;;;;;13.39;100.00;100952.81;5573062;31;34537;-68
2023/10/10 15:48:50;;;;;;;32.30;16.37;;;;;;;13.20;100.00;100956.69;5586911;31;33970;-68
2023/10/10 15:51:53;;;;;;;30.48;16.25;;;;;;;13.06;100.00;100958.19;5587244;31;33991;-68
2023/10/10 15:54:56;;;;;;;31.23;16.35;;;;;;;12.91;100.00;100959.88;5587349;31;33890;-68
2023/10/10 15:57:58;;;;;;;33.72;15.68;;;;;;;12.78;100.00;100959.56;5586870;31;34758;-68
2023/10/10 16:01:04;;;;;;;28.40;16.00;;;;;;;12.68;100.00;100958.91;5588535;31;33811;-67
2023/10/10 16:04:12;;;;;;;29.10;16.05;;;;;;;12.54;100.00;100951.56;5589922;31;33885;-67
2023/10/10 16:07:16;;;;;;;34.65;16.08;;;;;;;12.37;100.00;100960.56;5589963;31;34581;-67
2023/10/10 16:10:20;;;;;;;32.63;17.92;;;;;;;12.23;100.00;100961.22;5589792;31;34855;-68
2023/10/10 16:13:22;;;;;;;30.30;17.00;;;;;;;12.11;100.00;100964.19;5589336;31;34197;-68
2023/10/10 16:16:25;;;;;;;31.85;16.30;;;;;;;11.99;100.00;100964.66;5589798;31;34611;-68
2023/10/10 16:19:34;;;;;;;31.80;15.93;;;;;;;11.90;100.00;100965.63;5589829;31;33890;-68
2023/10/10 16:22:37;;;;;;;34.95;17.02;;;;;;;11.81;100.00;100966.63;5576104;31;33893;-68
2023/10/10 16:25:43;;;;;;;33.67;16.60;;;;;;;11.71;100.00;100974.69;5589777;31;33900;-68
2023/10/10 16:28:49;;;;;;;33.45;17.15;;;;;;;11.64;100.00;100963.84;5589399;31;34741;-67
2023/10/10 16:31:52;;;;;;;36.53;17.83;;;;;;;11.58;100.00;100975.13;5589799;31;33914;-68
2023/10/10 16:34:55;;;;;;;34.60;17.52;;;;;;;11.52;100.00;100974.94;5589099;31;34519;-67
2023/10/10 16:37:59;;;;;;;38.58;17.23;;;;;;;11.47;100.00;100975.41;5575694;31;33948;-67